createdAt,value
2018-03-21T13:22:16.144Z,5.60
2018-03-21T13:24:46.978Z,6.00
2018-03-21T13:27:17.542Z,6.20
2018-03-21T13:29:49.267Z,6.40
2018-03-21T13:32:19.889Z,6.40
2018-03-21T13:34:50.592Z,6.40
2018-03-21T13:37:22.308Z,6.50
2018-03-21T13:39:53.219Z,6.40
2018-03-21T13:42:23.914Z,6.20
2018-03-21T13:44:54.661Z,5.90
2018-03-21T13:47:26.354Z,5.50
2018-03-21T13:49:57.128Z,5.50
2018-03-21T13:52:28.108Z,5.50
2018-03-21T13:54:59.130Z,5.40
2018-03-21T13:57:30.660Z,5.20
2018-03-21T14:00:01.435Z,5.50
2018-03-21T14:02:32.972Z,5.60
2018-03-21T14:05:10.952Z,5.40
2018-03-21T14:07:41.827Z,5.40
2018-03-21T14:10:12.534Z,5.20
2018-03-21T14:12:43.122Z,5.40
2018-03-21T14:15:13.962Z,5.10
2018-03-21T14:17:45.701Z,5.10
2018-03-21T14:20:16.418Z,5.10
2018-03-21T14:22:47.493Z,5.30
2018-03-21T14:25:18.612Z,5.20
2018-03-21T14:27:50.371Z,5.60
2018-03-21T14:30:22.439Z,5.20
2018-03-21T14:32:53.211Z,5.20
2018-03-21T14:35:23.768Z,5.50
2018-03-21T14:37:54.443Z,5.50
2018-03-21T14:40:26.154Z,5.70
2018-03-21T14:42:57.024Z,5.70
2018-03-21T14:45:28.821Z,5.90
2018-03-21T14:48:02.760Z,5.90
2018-03-21T14:50:33.660Z,5.90
2018-03-21T14:53:11.536Z,6.00
2018-03-21T14:55:42.971Z,5.80
2018-03-21T14:58:14.106Z,5.90
2018-03-21T15:00:44.819Z,6.00
2018-03-21T15:03:16.083Z,5.90
2018-03-21T15:05:46.694Z,6.00
2018-03-21T15:08:17.542Z,5.70
2018-03-21T15:10:48.057Z,5.60
2018-03-21T15:13:19.867Z,6.00
2018-03-21T15:15:51.110Z,6.00
2018-03-21T15:18:21.788Z,5.90
2018-03-21T15:20:52.525Z,5.90
2018-03-21T15:23:23.680Z,5.80
2018-03-21T15:25:54.627Z,5.60
2018-03-21T15:28:26.325Z,5.80
2018-03-21T15:30:57.163Z,5.80
2018-03-21T15:33:28.888Z,6.20
2018-03-21T15:36:00.627Z,6.30
2018-03-21T15:38:31.491Z,6.20
